N25MA KBOS-KEWR
Flight info
| Callsign | N25MA |
|---|---|
| Flight time | N/A |
| Altitude | 16000 |
| Route | PATSS7 PATSS NELIE FLOSI4 |
| Aircraft | SF50/L-BDGRSWY/LB2U2 |
Departure
| Time | 2026-05-06 21:47 |
|---|---|
| Airport | Boston Logan International Airport (KBOS) |
Arrival
| Time | N/A |
|---|---|
| Airport | Newark Liberty International Airport (KEWR) |
| Time | Latitude | Longitude | Altitude | Speed | Heading |
|---|---|---|---|---|---|
| 2026-05-06 21:26 | 42.37403 | -71.02087 | 9 ft | 0 kts | 313° |
| 2026-05-06 21:40 | 42.37409 | -71.02087 | 9 ft | 5 kts | 36° |
| 2026-05-06 21:40 | 42.37424 | -71.02015 | 8 ft | 7 kts | 98° |
| 2026-05-06 21:41 | 42.37415 | -71.01982 | 7 ft | 2 kts | 127° |
| 2026-05-06 21:41 | 42.37414 | -71.01981 | 7 ft | 0 kts | 130° |
| 2026-05-06 21:41 | 42.37396 | -71.01957 | 8 ft | 9 kts | 128° |
| 2026-05-06 21:41 | 42.37331 | -71.01868 | 10 ft | 18 kts | 136° |
| 2026-05-06 21:42 | 42.37247 | -71.01756 | 10 ft | 16 kts | 139° |
| 2026-05-06 21:42 | 42.37168 | -71.01649 | 11 ft | 15 kts | 135° |
| 2026-05-06 21:42 | 42.37092 | -71.01549 | 11 ft | 16 kts | 136° |
| 2026-05-06 21:42 | 42.37008 | -71.01434 | 8 ft | 18 kts | 134° |
| 2026-05-06 21:43 | 42.36923 | -71.01319 | 8 ft | 14 kts | 114° |
| 2026-05-06 21:43 | 42.36924 | -71.01211 | 7 ft | 10 kts | 56° |
| 2026-05-06 21:43 | 42.36960 | -71.01145 | 7 ft | 9 kts | 45° |
| 2026-05-06 21:43 | 42.37025 | -71.01083 | 6 ft | 14 kts | 24° |
| 2026-05-06 21:44 | 42.37122 | -71.01021 | 5 ft | 17 kts | 26° |
| 2026-05-06 21:44 | 42.37232 | -71.00948 | 6 ft | 19 kts | 24° |
| 2026-05-06 21:44 | 42.37370 | -71.00869 | 3 ft | 23 kts | 19° |
| 2026-05-06 21:44 | 42.37519 | -71.00800 | 9 ft | 23 kts | 19° |
| 2026-05-06 21:45 | 42.37671 | -71.00726 | 14 ft | 23 kts | 18° |
| 2026-05-06 21:45 | 42.37802 | -71.00662 | 18 ft | 19 kts | 20° |
| 2026-05-06 21:45 | 42.37835 | -71.00564 | 17 ft | 11 kts | 109° |
| 2026-05-06 21:45 | 42.37766 | -71.00481 | 14 ft | 19 kts | 197° |
| 2026-05-06 21:46 | 42.37641 | -71.00542 | 14 ft | 45 kts | 200° |
| 2026-05-06 21:46 | 42.37140 | -71.00784 | 41 ft | 102 kts | 199° |
| 2026-05-06 21:46 | 42.36392 | -71.01165 | 340 ft | 124 kts | 202° |
| 2026-05-06 21:46 | 42.35447 | -71.01272 | 475 ft | 161 kts | 163° |
| 2026-05-06 21:47 | 42.34591 | -71.00128 | 573 ft | 186 kts | 128° |
| 2026-05-06 21:47 | 42.33837 | -70.98817 | 1416 ft | 165 kts | 144° |
| 2026-05-06 21:47 | 42.33114 | -70.97722 | 2552 ft | 156 kts | 140° |
| 2026-05-06 21:47 | 42.32372 | -70.96607 | 3139 ft | 158 kts | 158° |
| 2026-05-06 21:48 | 42.31460 | -70.95838 | 3782 ft | 164 kts | 154° |
| 2026-05-06 21:48 | 42.30977 | -70.94287 | 4591 ft | 203 kts | 97° |
| 2026-05-06 21:48 | 42.31491 | -70.92370 | 5001 ft | 239 kts | 68° |
| 2026-05-06 21:48 | 42.32039 | -70.90104 | 5020 ft | 268 kts | 85° |
| 2026-05-06 21:49 | 42.32336 | -70.87511 | 4996 ft | 284 kts | 89° |
| 2026-05-06 21:49 | 42.32662 | -70.84760 | 5005 ft | 307 kts | 86° |
| 2026-05-06 21:49 | 42.32993 | -70.81940 | 5002 ft | 297 kts | 95° |
| 2026-05-06 21:49 | 42.32757 | -70.79244 | 4992 ft | 284 kts | 114° |
| 2026-05-06 21:50 | 42.32012 | -70.76856 | 4998 ft | 270 kts | 130° |
| 2026-05-06 21:50 | 42.30896 | -70.74891 | 4996 ft | 258 kts | 146° |
| 2026-05-06 21:50 | 42.29524 | -70.73472 | 5161 ft | 237 kts | 160° |
| 2026-05-06 21:50 | 42.28604 | -70.72821 | 5638 ft | 214 kts | 168° |
| 2026-05-06 21:51 | 42.27304 | -70.72254 | 6502 ft | 179 kts | 180° |
| 2026-05-06 21:51 | 42.26183 | -70.72051 | 7406 ft | 149 kts | 189° |
| 2026-05-06 21:51 | 42.24734 | -70.72138 | 7631 ft | 171 kts | 198° |
| 2026-05-06 21:51 | 42.23502 | -70.72434 | 7660 ft | 188 kts | 199° |
| 2026-05-06 21:52 | 42.22224 | -70.72973 | 7680 ft | 196 kts | 208° |
| 2026-05-06 21:52 | 42.21390 | -70.73530 | 7685 ft | 200 kts | 214° |
| 2026-05-06 21:52 | 42.20258 | -70.74633 | 7704 ft | 199 kts | 225° |
| 2026-05-06 21:52 | 42.19329 | -70.75980 | 7990 ft | 195 kts | 230° |
| 2026-05-06 21:53 | 42.18572 | -70.77485 | 8264 ft | 194 kts | 239° |
| 2026-05-06 21:53 | 42.18072 | -70.79154 | 8520 ft | 196 kts | 247° |
| 2026-05-06 21:53 | 42.17786 | -70.80962 | 8803 ft | 202 kts | 256° |
| 2026-05-06 21:53 | 42.17542 | -70.82890 | 9095 ft | 208 kts | 252° |
| 2026-05-06 21:54 | 42.17224 | -70.84810 | 9383 ft | 211 kts | 253° |
| 2026-05-06 21:54 | 42.16952 | -70.86749 | 9671 ft | 215 kts | 255° |
| 2026-05-06 21:54 | 42.16698 | -70.88744 | 9943 ft | 216 kts | 255° |
| 2026-05-06 21:54 | 42.16427 | -70.90745 | 10203 ft | 218 kts | 255° |
| 2026-05-06 21:55 | 42.16151 | -70.92762 | 10468 ft | 220 kts | 255° |
| 2026-05-06 21:55 | 42.15909 | -70.94801 | 10731 ft | 221 kts | 258° |
| 2026-05-06 21:55 | 42.15728 | -70.96865 | 10997 ft | 222 kts | 258° |
| 2026-05-06 21:55 | 42.15540 | -70.98928 | 11264 ft | 222 kts | 258° |
| 2026-05-06 21:56 | 42.15355 | -71.01001 | 11535 ft | 223 kts | 259° |
| 2026-05-06 21:56 | 42.15172 | -71.03080 | 11810 ft | 223 kts | 259° |
| 2026-05-06 21:56 | 42.14989 | -71.05156 | 12091 ft | 223 kts | 259° |
| 2026-05-06 21:56 | 42.14801 | -71.07240 | 12368 ft | 224 kts | 259° |
| 2026-05-06 21:57 | 42.14611 | -71.09323 | 12649 ft | 224 kts | 259° |
| 2026-05-06 21:57 | 42.14428 | -71.11390 | 12926 ft | 225 kts | 259° |
| 2026-05-06 21:57 | 42.14240 | -71.13483 | 13211 ft | 225 kts | 259° |
| 2026-05-06 21:57 | 42.14051 | -71.15578 | 13495 ft | 225 kts | 259° |
| 2026-05-06 21:58 | 42.13862 | -71.17670 | 13765 ft | 225 kts | 259° |
| 2026-05-06 21:58 | 42.13675 | -71.19760 | 14020 ft | 225 kts | 259° |
| 2026-05-06 21:58 | 42.13485 | -71.21851 | 14276 ft | 225 kts | 259° |
| 2026-05-06 21:58 | 42.13295 | -71.23946 | 14533 ft | 225 kts | 259° |
| 2026-05-06 21:59 | 42.13103 | -71.26043 | 14796 ft | 225 kts | 259° |
| 2026-05-06 21:59 | 42.12912 | -71.28131 | 15060 ft | 224 kts | 259° |
| 2026-05-06 21:59 | 42.12723 | -71.30212 | 15325 ft | 222 kts | 259° |
| 2026-05-06 21:59 | 42.12543 | -71.32209 | 15593 ft | 204 kts | 258° |
| 2026-05-06 22:00 | 42.12379 | -71.34021 | 15841 ft | 193 kts | 258° |
| 2026-05-06 22:00 | 42.12208 | -71.35821 | 16004 ft | 196 kts | 258° |
| 2026-05-06 22:00 | 42.12035 | -71.37683 | 16007 ft | 204 kts | 258° |
| 2026-05-06 22:00 | 42.11858 | -71.39604 | 16017 ft | 209 kts | 258° |
| 2026-05-06 22:01 | 42.11681 | -71.41536 | 16023 ft | 212 kts | 258° |
| 2026-05-06 22:01 | 42.11497 | -71.43522 | 16021 ft | 215 kts | 258° |
| 2026-05-06 22:01 | 42.11309 | -71.45535 | 16016 ft | 217 kts | 258° |
| 2026-05-06 22:01 | 42.11121 | -71.47564 | 15997 ft | 219 kts | 258° |
| 2026-05-06 22:02 | 42.10931 | -71.49605 | 16004 ft | 220 kts | 258° |
| 2026-05-06 22:02 | 42.10739 | -71.51659 | 16010 ft | 223 kts | 258° |
| 2026-05-06 22:02 | 42.10542 | -71.53743 | 16020 ft | 225 kts | 258° |
| 2026-05-06 22:02 | 42.10347 | -71.55850 | 16020 ft | 227 kts | 258° |
| 2026-05-06 22:03 | 42.10144 | -71.57976 | 16008 ft | 230 kts | 258° |
| 2026-05-06 22:03 | 42.09945 | -71.60131 | 16016 ft | 233 kts | 258° |
| 2026-05-06 22:03 | 42.09740 | -71.62296 | 16011 ft | 234 kts | 258° |
| 2026-05-06 22:03 | 42.09535 | -71.64474 | 16012 ft | 235 kts | 258° |
| 2026-05-06 22:04 | 42.09328 | -71.66661 | 16008 ft | 235 kts | 258° |
| 2026-05-06 22:04 | 42.09120 | -71.68847 | 16009 ft | 236 kts | 258° |
| 2026-05-06 22:04 | 42.08909 | -71.71039 | 16006 ft | 235 kts | 258° |
| 2026-05-06 22:04 | 42.08593 | -71.73202 | 16007 ft | 235 kts | 255° |
| 2026-05-06 22:05 | 42.08274 | -71.75360 | 16010 ft | 235 kts | 255° |
| 2026-05-06 22:05 | 42.07959 | -71.77526 | 16014 ft | 236 kts | 255° |
| 2026-05-06 22:05 | 42.07643 | -71.79674 | 16010 ft | 237 kts | 255° |
| 2026-05-06 22:05 | 42.07320 | -71.81853 | 16011 ft | 238 kts | 255° |
| 2026-05-06 22:06 | 42.06997 | -71.84045 | 16010 ft | 239 kts | 255° |
| 2026-05-06 22:06 | 42.06670 | -71.86245 | 16010 ft | 241 kts | 255° |
| 2026-05-06 22:06 | 42.06340 | -71.88471 | 16006 ft | 243 kts | 255° |
| 2026-05-06 22:06 | 42.06008 | -71.90708 | 16009 ft | 245 kts | 255° |
| 2026-05-06 22:07 | 42.05672 | -71.92963 | 16008 ft | 246 kts | 255° |
| 2026-05-06 22:07 | 42.05335 | -71.95223 | 16006 ft | 247 kts | 255° |
| 2026-05-06 22:07 | 42.04996 | -71.97493 | 16009 ft | 248 kts | 255° |
| 2026-05-06 22:07 | 42.04654 | -71.99771 | 16003 ft | 248 kts | 255° |
| 2026-05-06 22:08 | 42.04314 | -72.02051 | 15999 ft | 249 kts | 255° |
| 2026-05-06 22:08 | 42.03973 | -72.04334 | 16002 ft | 249 kts | 255° |
| 2026-05-06 22:08 | 42.03630 | -72.06620 | 16003 ft | 249 kts | 255° |
| 2026-05-06 22:08 | 42.03287 | -72.08906 | 16000 ft | 250 kts | 255° |
| 2026-05-06 22:09 | 42.02942 | -72.11194 | 15999 ft | 250 kts | 255° |
| 2026-05-06 22:09 | 42.02602 | -72.13454 | 15993 ft | 250 kts | 255° |
| 2026-05-06 22:09 | 42.02258 | -72.15740 | 15973 ft | 250 kts | 255° |
| 2026-05-06 22:09 | 42.01911 | -72.18021 | 15990 ft | 248 kts | 255° |
| 2026-05-06 22:10 | 42.01563 | -72.20294 | 15988 ft | 248 kts | 255° |
| 2026-05-06 22:10 | 42.01214 | -72.22565 | 15988 ft | 248 kts | 255° |
| 2026-05-06 22:10 | 42.00864 | -72.24839 | 15986 ft | 248 kts | 255° |
| 2026-05-06 22:10 | 42.00515 | -72.27113 | 15992 ft | 249 kts | 255° |
| 2026-05-06 22:11 | 42.00166 | -72.29388 | 15982 ft | 249 kts | 255° |
| 2026-05-06 22:11 | 41.99816 | -72.31667 | 15983 ft | 249 kts | 255° |
| 2026-05-06 22:11 | 41.99469 | -72.33946 | 15979 ft | 248 kts | 255° |
| 2026-05-06 22:11 | 41.99124 | -72.36218 | 15982 ft | 248 kts | 255° |
| 2026-05-06 22:12 | 41.98778 | -72.38497 | 15973 ft | 249 kts | 255° |
| 2026-05-06 22:12 | 41.98431 | -72.40776 | 15970 ft | 249 kts | 255° |
| 2026-05-06 22:12 | 41.98081 | -72.43067 | 15969 ft | 250 kts | 255° |
| 2026-05-06 22:12 | 41.97732 | -72.45350 | 15968 ft | 249 kts | 255° |
| 2026-05-06 22:13 | 41.97382 | -72.47629 | 15967 ft | 249 kts | 255° |
| 2026-05-06 22:13 | 41.97038 | -72.49873 | 15967 ft | 249 kts | 255° |
| 2026-05-06 22:13 | 41.96688 | -72.52151 | 15966 ft | 248 kts | 255° |
| 2026-05-06 22:13 | 41.96339 | -72.54427 | 15966 ft | 249 kts | 255° |
| 2026-05-06 22:14 | 41.95988 | -72.56710 | 15968 ft | 250 kts | 255° |
| 2026-05-06 22:14 | 41.95638 | -72.59000 | 15967 ft | 250 kts | 255° |
| 2026-05-06 22:14 | 41.95288 | -72.61294 | 15968 ft | 251 kts | 255° |
| 2026-05-06 22:14 | 41.94935 | -72.63599 | 15969 ft | 252 kts | 255° |
| 2026-05-06 22:15 | 41.94580 | -72.65907 | 15969 ft | 253 kts | 255° |
| 2026-05-06 22:15 | 41.94223 | -72.68218 | 15969 ft | 253 kts | 255° |
| 2026-05-06 22:15 | 41.93863 | -72.70534 | 15969 ft | 253 kts | 255° |
| 2026-05-06 22:15 | 41.93504 | -72.72842 | 15970 ft | 253 kts | 255° |
| 2026-05-06 22:16 | 41.93144 | -72.75153 | 15969 ft | 252 kts | 255° |
| 2026-05-06 22:16 | 41.92786 | -72.77458 | 15968 ft | 251 kts | 255° |
| 2026-05-06 22:16 | 41.92449 | -72.79650 | 14820 ft | 237 kts | 256° |
| 2026-05-06 22:16 | 41.92101 | -72.81880 | 13031 ft | 252 kts | 256° |
| 2026-05-06 22:17 | 41.91755 | -72.84096 | 12441 ft | 229 kts | 256° |
| 2026-05-06 22:17 | 41.91427 | -72.86226 | 12020 ft | 243 kts | 256° |
| 2026-05-06 22:17 | 41.91075 | -72.88495 | 11629 ft | 249 kts | 256° |
| 2026-05-06 22:17 | 41.90726 | -72.90751 | 11231 ft | 245 kts | 257° |
| 2026-05-06 22:18 | 41.90378 | -72.92996 | 10846 ft | 246 kts | 256° |
| 2026-05-06 22:18 | 41.90025 | -72.95241 | 10483 ft | 245 kts | 256° |
| 2026-05-06 22:18 | 41.89667 | -72.97479 | 10100 ft | 245 kts | 256° |
| 2026-05-06 22:18 | 41.89303 | -72.99707 | 9972 ft | 243 kts | 256° |
| 2026-05-06 22:19 | 41.88940 | -73.01906 | 9967 ft | 240 kts | 256° |
| 2026-05-06 22:19 | 41.88577 | -73.04090 | 9966 ft | 239 kts | 256° |
| 2026-05-06 22:19 | 41.88192 | -73.06246 | 9961 ft | 236 kts | 255° |
| 2026-05-06 22:19 | 41.87788 | -73.08373 | 9962 ft | 233 kts | 255° |
| 2026-05-06 22:20 | 41.87458 | -73.10457 | 9960 ft | 231 kts | 257° |
| 2026-05-06 22:20 | 41.87140 | -73.12564 | 9964 ft | 231 kts | 257° |
| 2026-05-06 22:20 | 41.86819 | -73.14693 | 9964 ft | 235 kts | 257° |
| 2026-05-06 22:20 | 41.86501 | -73.16849 | 9968 ft | 234 kts | 258° |
| 2026-05-06 22:21 | 41.86234 | -73.18996 | 9942 ft | 233 kts | 258° |
| 2026-05-06 22:21 | 41.85946 | -73.21183 | 9594 ft | 239 kts | 258° |
| 2026-05-06 22:21 | 41.85668 | -73.23276 | 9189 ft | 217 kts | 259° |
| 2026-05-06 22:21 | 41.85431 | -73.25257 | 8748 ft | 215 kts | 259° |
| 2026-05-06 22:22 | 41.85217 | -73.27214 | 8333 ft | 208 kts | 261° |
| 2026-05-06 22:22 | 41.85105 | -73.29185 | 7933 ft | 218 kts | 261° |
| 2026-05-06 22:22 | 41.85013 | -73.31242 | 7544 ft | 217 kts | 266° |
| 2026-05-06 22:22 | 41.84954 | -73.33232 | 7142 ft | 214 kts | 269° |
| 2026-05-06 22:23 | 41.84999 | -73.35187 | 6971 ft | 204 kts | 278° |
| 2026-05-06 22:23 | 41.85435 | -73.37084 | 6963 ft | 219 kts | 285° |
| 2026-05-06 22:23 | 41.85927 | -73.39000 | 6956 ft | 212 kts | 283° |
| 2026-05-06 22:23 | 41.86265 | -73.40957 | 6951 ft | 220 kts | 279° |
| 2026-05-06 22:24 | 41.86575 | -73.42948 | 6958 ft | 216 kts | 279° |
| 2026-05-06 22:24 | 41.86844 | -73.44928 | 6961 ft | 219 kts | 277° |
| 2026-05-06 22:24 | 41.87103 | -73.46937 | 6954 ft | 218 kts | 277° |
| 2026-05-06 22:24 | 41.87400 | -73.48930 | 6955 ft | 217 kts | 279° |
| 2026-05-06 22:25 | 41.87714 | -73.50900 | 6953 ft | 216 kts | 279° |
| 2026-05-06 22:25 | 41.88030 | -73.52878 | 6946 ft | 217 kts | 278° |
| 2026-05-06 22:25 | 41.88358 | -73.54845 | 6943 ft | 217 kts | 279° |
| 2026-05-06 22:25 | 41.88708 | -73.56829 | 6939 ft | 219 kts | 281° |
| 2026-05-06 22:26 | 41.89078 | -73.58815 | 6944 ft | 219 kts | 281° |
| 2026-05-06 22:26 | 41.89454 | -73.60786 | 6944 ft | 218 kts | 281° |
| 2026-05-06 22:26 | 41.89829 | -73.62723 | 6941 ft | 217 kts | 282° |
| 2026-05-06 22:26 | 41.90216 | -73.64681 | 6943 ft | 217 kts | 282° |
| 2026-05-06 22:27 | 41.90320 | -73.66660 | 6927 ft | 215 kts | 255° |
| 2026-05-06 22:27 | 41.89534 | -73.68361 | 6941 ft | 218 kts | 232° |
| 2026-05-06 22:27 | 41.88506 | -73.69817 | 6944 ft | 216 kts | 229° |
| 2026-05-06 22:27 | 41.87413 | -73.71225 | 6941 ft | 219 kts | 227° |
| 2026-05-06 22:28 | 41.86281 | -73.72607 | 6943 ft | 222 kts | 226° |
| 2026-05-06 22:28 | 41.85142 | -73.73996 | 6942 ft | 218 kts | 228° |
| 2026-05-06 22:28 | 41.83972 | -73.75289 | 6942 ft | 221 kts | 223° |
| 2026-05-06 22:28 | 41.82751 | -73.76560 | 6944 ft | 220 kts | 223° |
| 2026-05-06 22:29 | 41.81551 | -73.77812 | 6939 ft | 218 kts | 223° |
| 2026-05-06 22:29 | 41.80367 | -73.79076 | 6943 ft | 216 kts | 224° |
| 2026-05-06 22:29 | 41.79223 | -73.80351 | 6942 ft | 217 kts | 225° |
| 2026-05-06 22:29 | 41.78063 | -73.81663 | 6944 ft | 219 kts | 225° |
| 2026-05-06 22:30 | 41.76904 | -73.82996 | 6945 ft | 218 kts | 225° |
| 2026-05-06 22:30 | 41.75725 | -73.84249 | 6947 ft | 220 kts | 221° |
| 2026-05-06 22:30 | 41.74469 | -73.85467 | 6952 ft | 222 kts | 221° |
| 2026-05-06 22:30 | 41.73247 | -73.86688 | 6952 ft | 218 kts | 221° |
| 2026-05-06 22:31 | 41.72020 | -73.87880 | 6957 ft | 219 kts | 221° |
| 2026-05-06 22:31 | 41.70764 | -73.89019 | 6949 ft | 219 kts | 218° |
| 2026-05-06 22:31 | 41.69460 | -73.90132 | 6951 ft | 224 kts | 218° |
| 2026-05-06 22:31 | 41.68163 | -73.91259 | 6951 ft | 220 kts | 219° |
| 2026-05-06 22:32 | 41.66891 | -73.92374 | 6947 ft | 219 kts | 218° |
| 2026-05-06 22:32 | 41.65602 | -73.93497 | 6951 ft | 222 kts | 219° |
| 2026-05-06 22:32 | 41.64312 | -73.94638 | 6952 ft | 221 kts | 219° |
| 2026-05-06 22:32 | 41.63037 | -73.95750 | 6911 ft | 216 kts | 217° |
| 2026-05-06 22:33 | 41.61771 | -73.96859 | 6957 ft | 222 kts | 219° |
| 2026-05-06 22:33 | 41.60499 | -73.98052 | 6961 ft | 224 kts | 221° |
| 2026-05-06 22:33 | 41.59260 | -73.99248 | 6952 ft | 217 kts | 220° |
| 2026-05-06 22:33 | 41.58080 | -74.00379 | 6951 ft | 221 kts | 220° |